createdAt,value
2023-02-20T00:00:42.309Z,0.68
2023-02-20T00:03:24.729Z,1.08
2023-02-20T00:05:54.388Z,0.60
2023-02-20T00:08:23.065Z,1.08
2023-02-20T00:10:50.040Z,0.77
2023-02-20T00:13:17.102Z,1.00
2023-02-20T00:15:46.774Z,1.23
2023-02-20T00:18:14.358Z,0.50
2023-02-20T00:20:44.052Z,0.80
2023-02-20T00:23:11.333Z,1.00
2023-02-20T00:25:38.386Z,0.70
2023-02-20T00:28:05.905Z,1.10
2023-02-20T00:30:32.959Z,0.70
2023-02-20T00:33:00.336Z,0.73
2023-02-20T00:35:27.527Z,0.50
2023-02-20T00:37:55.324Z,1.05
2023-02-20T00:40:24.947Z,0.70
2023-02-20T00:42:54.122Z,0.57
2023-02-20T00:45:21.176Z,1.13
2023-02-20T00:47:48.273Z,0.65
2023-02-20T00:50:16.738Z,0.80
2023-02-20T00:52:43.958Z,0.50
2023-02-20T00:55:10.813Z,0.90
2023-02-20T00:57:37.886Z,0.60
2023-02-20T01:00:07.955Z,1.10
2023-02-20T01:02:36.071Z,0.88
2023-02-20T01:05:03.764Z,0.60
2023-02-20T01:07:30.812Z,1.00
2023-02-20T01:09:57.562Z,0.60
2023-02-20T01:12:24.641Z,0.70
2023-02-20T01:14:51.417Z,0.80
2023-02-20T01:17:18.498Z,1.00
2023-02-20T01:19:45.258Z,0.75
2023-02-20T01:22:12.371Z,0.80
2023-02-20T01:24:39.237Z,1.23
2023-02-20T01:27:06.554Z,0.93
2023-02-20T01:29:33.430Z,0.90
2023-02-20T01:32:00.651Z,1.20
2023-02-20T01:34:27.664Z,1.77
2023-02-20T01:36:56.196Z,0.50
2023-02-20T01:39:26.135Z,1.20
2023-02-20T01:42:00.914Z,0.95
2023-02-20T01:44:30.981Z,0.80
2023-02-20T01:47:05.439Z,1.20
2023-02-20T01:49:36.157Z,1.30
2023-02-20T01:52:31.904Z,0.85
2023-02-20T01:55:00.862Z,1.00
2023-02-20T01:57:31.987Z,0.90
2023-02-20T02:00:07.540Z,1.02
2023-02-20T02:02:37.809Z,1.33
2023-02-20T02:05:05.458Z,1.50
2023-02-20T02:07:32.822Z,1.40
2023-02-20T02:10:04.592Z,1.02
2023-02-20T02:12:32.014Z,1.00
2023-02-20T02:14:58.870Z,1.30
2023-02-20T02:17:34.703Z,1.35
2023-02-20T02:20:45.133Z,1.42
2023-02-20T02:23:12.138Z,1.05
2023-02-20T02:25:41.846Z,1.02
2023-02-20T02:28:26.937Z,1.05
2023-02-20T02:31:11.650Z,1.73
2023-02-20T02:33:57.079Z,0.82
2023-02-20T02:36:23.786Z,1.30
2023-02-20T02:39:00.022Z,1.48
2023-02-20T02:41:39.834Z,1.10
2023-02-20T02:44:18.618Z,1.20
2023-02-20T02:47:02.274Z,1.20
2023-02-20T02:49:44.699Z,2.05
2023-02-20T02:52:12.342Z,1.30
2023-02-20T02:54:40.090Z,2.38
2023-02-20T02:57:21.812Z,1.15
2023-02-20T02:59:59.013Z,1.60
2023-02-20T03:02:30.313Z,1.33
2023-02-20T03:05:00.492Z,1.83
2023-02-20T03:07:31.205Z,1.70
2023-02-20T03:10:03.027Z,2.05
2023-02-20T03:12:32.322Z,1.92
2023-02-20T03:15:23.834Z,2.75
2023-02-20T03:18:15.982Z,1.70
2023-02-20T03:20:46.100Z,1.63
2023-02-20T03:23:23.640Z,2.22
2023-02-20T03:26:19.481Z,2.63
2023-02-20T03:29:06.581Z,1.85
2023-02-20T03:31:48.031Z,2.13
2023-02-20T03:34:42.246Z,1.67
2023-02-20T03:37:40.349Z,2.10
2023-02-20T03:40:30.145Z,2.03
2023-02-20T03:43:19.944Z,1.35
2023-02-20T03:45:48.097Z,2.00
2023-02-20T03:48:26.038Z,1.70
2023-02-20T03:51:11.597Z,1.88
2023-02-20T03:53:41.124Z,1.80
2023-02-20T03:56:16.110Z,1.60
2023-02-20T03:58:48.335Z,2.45
2023-02-20T04:01:18.289Z,1.95
2023-02-20T04:03:48.838Z,2.28
2023-02-20T04:06:18.586Z,2.13
2023-02-20T04:09:00.973Z,1.83
2023-02-20T04:11:39.274Z,1.92
2023-02-20T04:14:08.576Z,2.03
2023-02-20T04:16:39.101Z,1.92
2023-02-20T04:19:06.404Z,1.90
2023-02-20T04:21:39.975Z,1.60
2023-02-20T04:24:14.124Z,1.48
2023-02-20T04:29:08.452Z,1.77
2023-02-20T04:31:35.277Z,2.20
2023-02-20T04:34:02.428Z,1.98
2023-02-20T04:36:29.654Z,2.25
2023-02-20T04:38:56.764Z,1.67
2023-02-20T04:41:23.610Z,1.77
2023-02-20T04:44:10.644Z,1.55
2023-02-20T04:46:37.438Z,1.90
2023-02-20T04:49:04.793Z,1.95
2023-02-20T04:51:31.548Z,1.70
2023-02-20T04:53:58.599Z,1.83
2023-02-20T04:56:25.482Z,2.00
2023-02-20T04:58:52.645Z,1.75
2023-02-20T05:01:19.450Z,1.50
2023-02-20T05:03:46.527Z,2.15
2023-02-20T05:06:13.536Z,1.67
2023-02-20T05:08:40.810Z,1.77
2023-02-20T05:11:07.786Z,1.90
2023-02-20T05:13:34.818Z,1.88
2023-02-20T05:16:01.645Z,2.45
2023-02-20T05:18:30.151Z,2.25
2023-02-20T05:21:16.230Z,2.00
2023-02-20T05:23:47.218Z,1.95
2023-02-20T05:26:20.559Z,2.10
2023-02-20T05:28:47.713Z,1.90
2023-02-20T05:31:17.317Z,1.80
2023-02-20T05:33:44.807Z,1.30
2023-02-20T05:36:11.928Z,1.85
2023-02-20T05:38:41.388Z,1.65
2023-02-20T05:41:08.302Z,2.25
2023-02-20T05:43:35.387Z,1.65
2023-02-20T05:46:02.201Z,1.70
2023-02-20T05:48:29.369Z,1.80
2023-02-20T05:50:56.218Z,1.95
2023-02-20T05:53:23.378Z,1.60
2023-02-20T05:55:50.371Z,2.10
2023-02-20T05:58:17.470Z,1.95
2023-02-20T06:00:44.243Z,1.65
2023-02-20T06:03:11.376Z,3.35
2023-02-20T06:05:38.160Z,1.65
2023-02-20T06:08:05.846Z,2.08
2023-02-20T06:10:33.111Z,1.92
2023-02-20T06:13:00.590Z,1.33
2023-02-20T06:15:27.483Z,1.50
2023-02-20T06:17:54.524Z,1.33
2023-02-20T06:20:21.329Z,1.90
2023-02-20T06:22:49.432Z,1.50
2023-02-20T06:25:16.625Z,1.90
2023-02-20T06:27:43.702Z,1.33
2023-02-20T06:30:11.264Z,2.25
2023-02-20T06:32:38.334Z,1.90
2023-02-20T06:35:06.196Z,1.73
2023-02-20T06:37:33.248Z,1.45
2023-02-20T06:40:00.165Z,1.92
2023-02-20T06:42:27.377Z,1.70
2023-02-20T06:44:54.164Z,1.38
2023-02-20T06:47:21.310Z,1.40
2023-02-20T06:49:48.153Z,1.45
2023-02-20T06:52:15.218Z,1.42
2023-02-20T06:54:41.992Z,1.52
2023-02-20T06:57:09.212Z,1.60
2023-02-20T06:59:43.611Z,1.85
2023-02-20T07:02:14.967Z,1.27
2023-02-20T07:04:42.443Z,1.25
2023-02-20T07:07:09.537Z,1.38
2023-02-20T07:09:36.341Z,1.40
2023-02-20T07:12:04.138Z,1.15
2023-02-20T07:14:30.877Z,1.23
2023-02-20T07:16:57.970Z,1.35
2023-02-20T07:19:24.708Z,2.05
2023-02-20T07:21:51.837Z,1.23
2023-02-20T07:24:18.798Z,1.23
2023-02-20T07:26:45.979Z,1.13
2023-02-20T07:29:15.698Z,1.08
2023-02-20T07:31:42.936Z,1.65
2023-02-20T07:34:09.757Z,1.25
2023-02-20T07:36:37.065Z,1.30
2023-02-20T07:39:06.625Z,1.33
2023-02-20T07:41:35.902Z,1.85
2023-02-20T07:44:02.918Z,1.55
2023-02-20T07:46:33.865Z,1.48
2023-02-20T07:49:05.840Z,1.20
2023-02-20T07:51:33.435Z,1.88
2023-02-20T07:54:00.702Z,1.30
2023-02-20T07:56:27.851Z,1.45
2023-02-20T07:58:54.744Z,1.83
2023-02-20T08:01:21.917Z,1.35
2023-02-20T08:03:48.765Z,2.38
2023-02-20T08:06:20.012Z,1.90
2023-02-20T08:08:50.754Z,1.30
2023-02-20T08:11:20.197Z,1.52
2023-02-20T08:13:50.061Z,2.03
2023-02-20T08:16:17.430Z,1.77
2023-02-20T08:18:45.054Z,1.98
2023-02-20T08:21:12.151Z,1.95
2023-02-20T08:23:38.956Z,1.95
2023-02-20T08:26:06.087Z,1.67
2023-02-20T08:28:32.931Z,1.63
2023-02-20T08:31:00.068Z,2.78
2023-02-20T08:33:26.961Z,1.77
2023-02-20T08:35:55.766Z,1.75
2023-02-20T08:38:26.744Z,1.65
2023-02-20T08:40:53.786Z,2.30
2023-02-20T08:43:20.656Z,1.70
2023-02-20T08:45:47.845Z,2.10
2023-02-20T08:48:14.818Z,3.25
2023-02-20T08:50:42.332Z,2.83
2023-02-20T08:53:09.525Z,2.72
2023-02-20T08:55:36.622Z,2.28
2023-02-20T08:58:03.485Z,2.30
2023-02-20T09:00:30.558Z,2.85
2023-02-20T09:02:57.477Z,1.95
2023-02-20T09:05:24.701Z,2.63
2023-02-20T09:07:51.495Z,2.83
2023-02-20T09:10:19.837Z,2.47
2023-02-20T09:12:47.188Z,2.63
2023-02-20T09:15:18.072Z,2.90
2023-02-20T09:17:48.143Z,2.70
2023-02-20T09:20:16.978Z,2.60
2023-02-20T09:22:43.758Z,2.10
2023-02-20T09:25:12.234Z,2.28
2023-02-20T09:27:39.232Z,1.88
2023-02-20T09:30:07.430Z,2.47
2023-02-20T09:32:34.425Z,2.10
2023-02-20T09:35:01.589Z,2.22
2023-02-20T09:37:28.573Z,1.90
2023-02-20T09:39:55.634Z,1.75
2023-02-20T09:42:28.733Z,1.75
2023-02-20T09:45:27.106Z,1.63
2023-02-20T09:48:10.607Z,1.98
2023-02-20T09:50:49.328Z,1.95
2023-02-20T09:53:45.334Z,1.77
2023-02-20T09:56:19.677Z,1.80
2023-02-20T09:59:00.257Z,1.83
2023-02-20T10:01:28.890Z,1.95
2023-02-20T10:03:59.113Z,2.60
2023-02-20T10:06:32.715Z,2.72
2023-02-20T10:09:02.246Z,2.83
2023-02-20T10:11:38.481Z,1.83
2023-02-20T10:14:40.682Z,2.03
2023-02-20T10:17:11.056Z,2.08
2023-02-20T10:20:02.750Z,2.97
2023-02-20T10:22:36.260Z,1.92
2023-02-20T10:25:14.231Z,2.75
2023-02-20T10:27:44.168Z,2.33
2023-02-20T10:30:14.207Z,2.72
2023-02-20T10:33:10.285Z,2.85
2023-02-20T10:35:46.316Z,2.47
2023-02-20T10:38:21.010Z,2.90
2023-02-20T10:40:54.484Z,2.47
2023-02-20T10:45:51.908Z,2.25
2023-02-20T10:48:19.013Z,2.42
2023-02-20T10:51:03.470Z,1.92
2023-02-20T10:53:36.173Z,2.13
2023-02-20T10:56:17.632Z,1.85
2023-02-20T10:58:57.193Z,2.00
2023-02-20T11:01:26.433Z,2.50
2023-02-20T11:03:59.761Z,3.00
2023-02-20T11:06:37.125Z,2.70
2023-02-20T11:09:04.575Z,2.70
2023-02-20T11:11:35.528Z,2.28
2023-02-20T11:14:20.287Z,2.13
2023-02-20T11:16:56.521Z,3.58
2023-02-20T11:19:30.587Z,1.73
2023-02-20T11:21:57.743Z,2.15
2023-02-20T11:24:29.410Z,2.30
2023-02-20T11:27:20.917Z,3.13
2023-02-20T11:30:01.773Z,2.33
2023-02-20T11:32:39.089Z,2.92
2023-02-20T11:35:18.157Z,2.80
2023-02-20T11:37:54.761Z,3.13
2023-02-20T11:40:32.171Z,3.33
2023-02-20T11:43:19.261Z,2.80
2023-02-20T11:45:46.557Z,2.55
2023-02-20T11:48:19.470Z,2.35
2023-02-20T11:50:48.794Z,3.78
2023-02-20T11:53:34.325Z,2.50
2023-02-20T11:56:15.826Z,2.95
2023-02-20T11:58:43.461Z,3.28
2023-02-20T12:01:33.838Z,2.53
2023-02-20T12:04:01.329Z,2.50
2023-02-20T12:06:36.219Z,2.70
2023-02-20T12:09:07.191Z,2.33
2023-02-20T12:11:34.695Z,2.17
2023-02-20T12:14:01.524Z,2.78
2023-02-20T12:16:53.980Z,2.33
2023-02-20T12:19:39.512Z,2.22
2023-02-20T12:22:12.369Z,1.88
2023-02-20T12:24:54.567Z,2.30
2023-02-20T12:28:05.404Z,1.98
2023-02-20T12:30:56.645Z,2.95
2023-02-20T12:33:55.069Z,2.05
2023-02-20T12:36:38.433Z,2.72
2023-02-20T12:39:30.422Z,1.80
2023-02-20T12:42:26.960Z,2.00
2023-02-20T12:45:04.429Z,2.22
2023-02-20T12:47:38.390Z,2.13
2023-02-20T12:50:31.507Z,2.33
2023-02-20T12:53:28.945Z,2.17
2023-02-20T12:56:04.176Z,2.25
2023-02-20T12:58:42.732Z,2.13
2023-02-20T13:01:15.538Z,2.03
2023-02-20T13:03:57.580Z,2.13
2023-02-20T13:06:51.551Z,2.15
2023-02-20T13:09:24.413Z,2.90
2023-02-20T13:11:56.762Z,2.63
2023-02-20T13:14:34.413Z,2.92
2023-02-20T13:17:15.988Z,2.78
2023-02-20T13:19:55.083Z,2.10
2023-02-20T13:22:22.482Z,2.20
2023-02-20T13:24:49.314Z,2.33
2023-02-20T13:27:32.180Z,2.45
2023-02-20T13:30:01.926Z,2.60
2023-02-20T13:32:33.069Z,2.20
2023-02-20T13:35:37.617Z,1.83
2023-02-20T13:38:17.836Z,1.70
2023-02-20T13:40:45.438Z,2.22
2023-02-20T13:43:12.479Z,1.92
2023-02-20T13:45:41.623Z,1.70
2023-02-20T13:48:43.607Z,1.88
2023-02-20T13:51:16.610Z,2.17
2023-02-20T13:54:03.110Z,2.05
2023-02-20T13:56:38.665Z,1.80
2023-02-20T13:59:12.526Z,1.83
2023-02-20T14:02:15.996Z,1.58
2023-02-20T14:05:01.912Z,1.75
2023-02-20T14:07:42.921Z,1.90
2023-02-20T14:10:24.155Z,1.65
2023-02-20T14:13:13.928Z,1.50
2023-02-20T14:15:49.941Z,1.52
2023-02-20T14:18:25.803Z,1.35
2023-02-20T14:21:08.830Z,1.42
2023-02-20T14:23:36.306Z,1.70
2023-02-20T14:26:06.329Z,1.75
2023-02-20T14:28:36.684Z,1.63
2023-02-20T14:31:47.955Z,1.70
2023-02-20T14:34:24.037Z,1.45
2023-02-20T14:37:21.627Z,1.42
2023-02-20T14:40:30.104Z,1.48
2023-02-20T14:43:01.941Z,1.60
2023-02-20T14:45:28.995Z,1.48
2023-02-20T14:48:01.108Z,1.20
2023-02-20T14:50:33.404Z,1.77
2023-02-20T14:53:03.229Z,1.20
2023-02-20T14:55:30.159Z,1.67
2023-02-20T14:57:57.387Z,1.60
2023-02-20T15:00:33.544Z,1.20
2023-02-20T15:03:01.220Z,1.60
2023-02-20T15:05:34.394Z,1.42
2023-02-20T15:08:17.868Z,1.55
2023-02-20T15:10:48.952Z,1.30
2023-02-20T15:13:19.969Z,1.30
2023-02-20T15:15:50.418Z,1.15
2023-02-20T15:18:37.676Z,1.33
2023-02-20T15:21:05.366Z,1.20
2023-02-20T15:23:38.157Z,1.52
2023-02-20T15:26:31.303Z,1.90
2023-02-20T15:29:18.158Z,1.33
2023-02-20T15:31:46.587Z,1.52
2023-02-20T15:34:22.252Z,3.08
2023-02-20T15:36:49.689Z,2.75
2023-02-20T15:39:17.910Z,3.03
2023-02-20T15:41:45.634Z,3.92
2023-02-20T15:44:12.782Z,3.88
2023-02-20T15:46:39.814Z,3.95
2023-02-20T15:49:09.614Z,3.13
2023-02-20T15:51:39.845Z,3.72
2023-02-20T15:54:13.506Z,3.80
2023-02-20T15:56:40.612Z,4.40
2023-02-20T15:59:14.758Z,5.25
2023-02-20T16:01:41.759Z,3.97
2023-02-20T16:04:09.507Z,4.50
2023-02-20T16:06:36.787Z,5.15
2023-02-20T16:09:04.112Z,4.70
2023-02-20T16:11:47.665Z,5.38
2023-02-20T16:14:15.861Z,4.50
2023-02-20T16:16:45.039Z,4.43
2023-02-20T16:19:18.362Z,4.38
2023-02-20T16:21:58.207Z,4.73
2023-02-20T16:24:26.268Z,4.70
2023-02-20T16:26:53.747Z,4.40
2023-02-20T16:29:28.072Z,5.15
2023-02-20T16:31:54.849Z,4.03
2023-02-20T16:34:27.124Z,4.35
2023-02-20T16:36:54.610Z,4.10
2023-02-20T16:39:26.928Z,4.70
2023-02-20T16:41:59.422Z,4.88
2023-02-20T16:44:44.685Z,4.03
2023-02-20T16:47:13.531Z,5.00
2023-02-20T16:49:40.799Z,4.70
2023-02-20T16:52:24.246Z,3.75
2023-02-20T16:54:52.691Z,4.57
2023-02-20T16:57:21.588Z,4.50
2023-02-20T16:59:48.669Z,4.50
2023-02-20T17:02:18.800Z,4.25
2023-02-20T17:04:46.400Z,4.13
2023-02-20T17:07:13.892Z,4.63
2023-02-20T17:09:46.425Z,4.15
2023-02-20T17:12:16.265Z,4.75
2023-02-20T17:14:43.737Z,4.30
2023-02-20T17:17:10.698Z,3.90
2023-02-20T17:19:39.869Z,5.35
2023-02-20T17:22:07.391Z,5.88
2023-02-20T17:24:35.060Z,4.10
2023-02-20T17:27:03.226Z,4.65
2023-02-20T17:29:30.478Z,5.43
2023-02-20T17:31:57.358Z,4.38
2023-02-20T17:34:24.622Z,5.07
2023-02-20T17:36:51.992Z,4.03
2023-02-20T17:39:22.475Z,5.13
2023-02-20T17:41:50.502Z,5.03
2023-02-20T17:44:23.750Z,5.68
2023-02-20T17:46:55.003Z,5.40
2023-02-20T17:49:25.910Z,6.07
2023-02-20T17:51:58.496Z,5.32
2023-02-20T17:54:26.503Z,5.97
2023-02-20T17:56:53.966Z,5.55
2023-02-20T17:59:23.755Z,6.07
2023-02-20T18:01:51.751Z,6.25
2023-02-20T18:04:21.193Z,5.57
2023-02-20T18:06:48.995Z,5.55
2023-02-20T18:09:18.400Z,5.82
2023-02-20T18:11:46.190Z,4.88
2023-02-20T18:14:14.240Z,5.18
2023-02-20T18:16:41.190Z,5.43
2023-02-20T18:19:10.524Z,4.90
2023-02-20T18:21:42.076Z,5.50
2023-02-20T18:24:09.894Z,5.05
2023-02-20T18:26:36.767Z,5.10
2023-02-20T18:29:04.465Z,6.38
2023-02-20T18:31:31.494Z,5.30
2023-02-20T18:33:58.985Z,6.25
2023-02-20T18:36:26.250Z,5.35
2023-02-20T18:38:53.490Z,5.50
2023-02-20T18:41:20.569Z,5.32
2023-02-20T18:43:47.702Z,4.88
2023-02-20T18:46:28.415Z,6.18
2023-02-20T18:48:55.532Z,4.72
2023-02-20T18:51:27.435Z,5.32
2023-02-20T18:53:54.801Z,5.65
2023-02-20T18:56:22.515Z,5.35
2023-02-20T18:58:49.629Z,5.63
2023-02-20T19:01:19.596Z,5.40
2023-02-20T19:03:48.412Z,5.38
2023-02-20T19:06:24.610Z,5.60
2023-02-20T19:08:51.746Z,5.85
2023-02-20T19:11:18.686Z,6.05
2023-02-20T19:13:45.814Z,6.18
2023-02-20T19:16:13.536Z,6.72
2023-02-20T19:18:49.714Z,6.40
2023-02-20T19:21:17.800Z,6.22
2023-02-20T19:23:46.122Z,5.05
2023-02-20T19:26:13.465Z,6.00
2023-02-20T19:28:42.195Z,6.00
2023-02-20T19:31:10.804Z,6.00
2023-02-20T19:33:38.842Z,6.72
2023-02-20T19:36:09.121Z,6.88
2023-02-20T19:38:39.141Z,5.05
2023-02-20T19:41:06.265Z,6.57
2023-02-20T19:43:33.544Z,6.38
2023-02-20T19:46:00.510Z,6.97
2023-02-20T19:48:28.360Z,7.80
2023-02-20T19:50:56.759Z,6.35
2023-02-20T19:53:24.077Z,7.50
2023-02-20T19:55:54.467Z,7.63
2023-02-20T19:58:22.090Z,7.32
2023-02-20T20:00:49.150Z,6.32
2023-02-20T20:03:16.464Z,8.05
2023-02-20T20:05:43.390Z,7.78
2023-02-20T20:08:10.928Z,7.75
2023-02-20T20:10:37.725Z,8.68
2023-02-20T20:13:06.489Z,8.27
2023-02-20T20:15:34.225Z,7.32
2023-02-20T20:18:02.031Z,6.75
2023-02-20T20:20:31.859Z,5.35
2023-02-20T20:23:05.572Z,6.57
2023-02-20T20:25:32.876Z,4.85
2023-02-20T20:28:02.234Z,4.95
2023-02-20T20:30:30.794Z,3.95
2023-02-20T20:32:58.272Z,4.80
2023-02-20T20:35:26.433Z,5.38
2023-02-20T20:37:53.763Z,6.30
2023-02-20T20:40:22.766Z,4.90
2023-02-20T20:42:50.096Z,5.25
2023-02-20T20:45:17.970Z,5.55
2023-02-20T20:47:45.640Z,6.32
2023-02-20T20:50:15.690Z,5.97
2023-02-20T20:52:42.753Z,5.20
2023-02-20T20:55:10.146Z,4.75
2023-02-20T20:57:38.050Z,4.47
2023-02-20T21:00:07.499Z,5.50
2023-02-20T21:02:34.734Z,5.68
2023-02-20T21:05:10.268Z,5.68
2023-02-20T21:07:39.621Z,5.07
2023-02-20T21:10:08.510Z,6.05
2023-02-20T21:12:35.677Z,5.05
2023-02-20T21:15:03.640Z,5.50
2023-02-20T21:17:30.698Z,6.15
2023-02-20T21:19:57.433Z,5.68
2023-02-20T21:22:24.509Z,6.35
2023-02-20T21:24:51.656Z,5.82
2023-02-20T21:27:18.844Z,6.28
2023-02-20T21:29:45.673Z,5.93
2023-02-20T21:32:12.993Z,6.25
2023-02-20T21:34:40.042Z,6.15
2023-02-20T21:37:07.520Z,6.57
2023-02-20T21:39:34.315Z,6.00
2023-02-20T21:42:20.179Z,5.53
2023-02-20T21:44:48.516Z,6.80
2023-02-20T21:47:17.175Z,7.13
2023-02-20T21:49:46.352Z,5.82
2023-02-20T21:52:14.276Z,6.35
2023-02-20T21:54:42.335Z,6.60
2023-02-20T21:57:09.411Z,7.45
2023-02-20T21:59:38.674Z,5.70
2023-02-20T22:02:05.713Z,6.28
2023-02-20T22:04:32.798Z,6.68
2023-02-20T22:07:18.869Z,6.85
2023-02-20T22:10:08.398Z,7.35
2023-02-20T22:12:54.329Z,6.20
2023-02-20T22:15:39.670Z,7.03
2023-02-20T22:18:25.616Z,7.80
2023-02-20T22:21:10.993Z,7.28
2023-02-20T22:23:56.743Z,6.35
2023-02-20T22:26:41.991Z,6.65
2023-02-20T22:29:28.012Z,6.82
2023-02-20T22:32:13.853Z,6.68
2023-02-20T22:35:10.946Z,6.18
2023-02-20T22:37:57.310Z,5.57
2023-02-20T22:40:43.153Z,6.40
2023-02-20T22:43:28.668Z,7.75
2023-02-20T22:46:17.098Z,7.15
2023-02-20T22:49:02.409Z,6.25
2023-02-20T22:51:48.267Z,5.85
2023-02-20T22:54:33.599Z,6.50
2023-02-20T22:57:19.461Z,6.60
2023-02-20T23:00:04.858Z,5.78
2023-02-20T23:02:56.902Z,6.88
2023-02-20T23:05:42.514Z,6.03
2023-02-20T23:08:28.378Z,6.40
2023-02-20T23:11:13.935Z,6.20
2023-02-20T23:13:59.826Z,7.65
2023-02-20T23:16:45.239Z,5.85
2023-02-20T23:19:31.020Z,6.05
2023-02-20T23:22:16.757Z,6.60
2023-02-20T23:25:02.324Z,7.50
2023-02-20T23:27:47.801Z,6.20
2023-02-20T23:30:33.733Z,7.47
2023-02-20T23:33:19.103Z,6.68
2023-02-20T23:36:04.768Z,6.50
2023-02-20T23:38:50.332Z,6.57
2023-02-20T23:41:36.129Z,7.40
2023-02-20T23:44:24.713Z,6.05
2023-02-20T23:47:10.469Z,6.05
2023-02-20T23:49:56.286Z,6.95
2023-02-20T23:52:41.986Z,7.05
2023-02-20T23:55:27.210Z,6.85
2023-02-20T23:58:13.176Z,8.05
